Eastlake, Ohio
Current Conditions -  °F | °C
As of 8:45 PM on Saturday 25 Oct 2014 (Local Time) from KCGF Reporting Station
Clear Clear  
Wind Chill: 61°   Ceiling: Unl
Heat Index: 61°   Visibility: 10mi
Dew Point: 50°   Wind: 12mph
Humidity: 68%   Direction: 290°WNW
Pressure: 29.76"   Gusts: 23mph
Location:  41.66°N, 81.44°W
Report Text: KCGF 260045Z 29010G20KT 10SM SKC 16/10 A2976
Loading
Personal Weather Stations






























Interactive Weather Map
Tropical Storm Tracking
New forecast layout! Learn more

10-Day Weather Forecast

Advertisements
Track Severe Weather on mobile